sensor_id;sensor_type;location;lat;lon;timestamp;P1;durP1;ratioP1;P2;durP2;ratioP2
1831;SDS011;1680;48.106;11.708;2023-04-15T00:01:49;2.77;;;2.13;;
1831;SDS011;1680;48.106;11.708;2023-04-15T00:04:16;3.23;;;2.63;;
1831;SDS011;1680;48.106;11.708;2023-04-15T00:06:48;2.80;;;2.20;;
1831;SDS011;1680;48.106;11.708;2023-04-15T00:09:18;3.17;;;2.60;;
1831;SDS011;1680;48.106;11.708;2023-04-15T00:11:46;2.80;;;2.60;;
1831;SDS011;1680;48.106;11.708;2023-04-15T00:14:13;3.37;;;3.07;;
1831;SDS011;1680;48.106;11.708;2023-04-15T00:16:41;4.10;;;2.60;;
1831;SDS011;1680;48.106;11.708;2023-04-15T00:19:08;3.37;;;2.70;;
1831;SDS011;1680;48.106;11.708;2023-04-15T00:21:36;3.33;;;2.87;;
1831;SDS011;1680;48.106;11.708;2023-04-15T00:24:03;2.87;;;2.23;;
1831;SDS011;1680;48.106;11.708;2023-04-15T00:26:32;2.67;;;2.40;;
1831;SDS011;1680;48.106;11.708;2023-04-15T00:28:59;3.47;;;2.27;;
1831;SDS011;1680;48.106;11.708;2023-04-15T00:31:27;3.40;;;3.03;;
1831;SDS011;1680;48.106;11.708;2023-04-15T00:33:54;4.40;;;2.60;;
1831;SDS011;1680;48.106;11.708;2023-04-15T00:36:21;3.13;;;2.60;;
1831;SDS011;1680;48.106;11.708;2023-04-15T00:38:50;3.13;;;2.70;;
1831;SDS011;1680;48.106;11.708;2023-04-15T00:41:17;2.53;;;2.30;;
1831;SDS011;1680;48.106;11.708;2023-04-15T00:43:48;3.87;;;2.70;;
1831;SDS011;1680;48.106;11.708;2023-04-15T00:46:16;4.30;;;2.73;;
1831;SDS011;1680;48.106;11.708;2023-04-15T00:48:46;2.63;;;2.40;;
1831;SDS011;1680;48.106;11.708;2023-04-15T00:51:13;2.63;;;2.43;;
1831;SDS011;1680;48.106;11.708;2023-04-15T00:53:40;4.57;;;2.80;;
1831;SDS011;1680;48.106;11.708;2023-04-15T00:56:08;4.90;;;2.70;;
1831;SDS011;1680;48.106;11.708;2023-04-15T00:58:35;3.13;;;2.93;;
1831;SDS011;1680;48.106;11.708;2023-04-15T01:01:04;3.17;;;2.70;;
1831;SDS011;1680;48.106;11.708;2023-04-15T01:03:31;3.70;;;2.97;;
1831;SDS011;1680;48.106;11.708;2023-04-15T01:05:59;3.03;;;2.77;;
1831;SDS011;1680;48.106;11.708;2023-04-15T01:08:26;3.40;;;2.83;;
1831;SDS011;1680;48.106;11.708;2023-04-15T01:10:54;3.97;;;2.97;;
1831;SDS011;1680;48.106;11.708;2023-04-15T01:13:23;3.90;;;2.97;;
1831;SDS011;1680;48.106;11.708;2023-04-15T01:15:50;2.70;;;2.37;;
1831;SDS011;1680;48.106;11.708;2023-04-15T01:18:20;3.57;;;3.17;;
1831;SDS011;1680;48.106;11.708;2023-04-15T01:20:48;4.17;;;3.50;;
1831;SDS011;1680;48.106;11.708;2023-04-15T01:23:15;3.73;;;3.43;;
1831;SDS011;1680;48.106;11.708;2023-04-15T01:25:44;2.83;;;2.63;;
1831;SDS011;1680;48.106;11.708;2023-04-15T01:28:12;2.73;;;2.53;;
1831;SDS011;1680;48.106;11.708;2023-04-15T01:30:39;3.40;;;2.70;;
1831;SDS011;1680;48.106;11.708;2023-04-15T01:33:06;4.83;;;2.93;;
1831;SDS011;1680;48.106;11.708;2023-04-15T01:35:33;4.20;;;3.20;;
1831;SDS011;1680;48.106;11.708;2023-04-15T01:38:03;4.47;;;3.40;;
1831;SDS011;1680;48.106;11.708;2023-04-15T01:40:32;3.20;;;3.00;;
1831;SDS011;1680;48.106;11.708;2023-04-15T01:43:01;3.83;;;3.10;;
1831;SDS011;1680;48.106;11.708;2023-04-15T01:45:29;3.37;;;3.17;;
1831;SDS011;1680;48.106;11.708;2023-04-15T01:47:56;4.20;;;3.40;;
1831;SDS011;1680;48.106;11.708;2023-04-15T01:50:23;3.07;;;2.80;;
1831;SDS011;1680;48.106;11.708;2023-04-15T01:52:51;4.93;;;3.30;;
1831;SDS011;1680;48.106;11.708;2023-04-15T01:55:18;3.50;;;3.13;;
1831;SDS011;1680;48.106;11.708;2023-04-15T01:57:45;4.07;;;3.77;;
1831;SDS011;1680;48.106;11.708;2023-04-15T02:00:14;3.90;;;3.50;;
1831;SDS011;1680;48.106;11.708;2023-04-15T02:02:42;4.83;;;3.33;;
1831;SDS011;1680;48.106;11.708;2023-04-15T02:05:09;4.20;;;3.00;;
1831;SDS011;1680;48.106;11.708;2023-04-15T02:07:36;3.87;;;3.47;;
1831;SDS011;1680;48.106;11.708;2023-04-15T02:10:04;3.60;;;3.00;;
1831;SDS011;1680;48.106;11.708;2023-04-15T02:12:31;5.27;;;3.40;;
1831;SDS011;1680;48.106;11.708;2023-04-15T02:14:59;5.17;;;3.33;;
1831;SDS011;1680;48.106;11.708;2023-04-15T02:17:27;3.10;;;2.80;;
1831;SDS011;1680;48.106;11.708;2023-04-15T02:19:55;4.00;;;3.30;;
1831;SDS011;1680;48.106;11.708;2023-04-15T02:22:22;6.33;;;3.30;;
1831;SDS011;1680;48.106;11.708;2023-04-15T02:24:49;4.77;;;3.23;;
1831;SDS011;1680;48.106;11.708;2023-04-15T02:27:16;4.27;;;3.87;;
1831;SDS011;1680;48.106;11.708;2023-04-15T02:29:44;3.67;;;3.33;;
1831;SDS011;1680;48.106;11.708;2023-04-15T02:32:12;2.83;;;2.53;;
1831;SDS011;1680;48.106;11.708;2023-04-15T02:34:40;4.20;;;2.90;;
1831;SDS011;1680;48.106;11.708;2023-04-15T02:37:08;3.63;;;3.13;;
1831;SDS011;1680;48.106;11.708;2023-04-15T02:39:35;3.73;;;3.33;;
1831;SDS011;1680;48.106;11.708;2023-04-15T02:42:03;3.20;;;2.80;;
1831;SDS011;1680;48.106;11.708;2023-04-15T02:44:31;3.90;;;3.50;;
1831;SDS011;1680;48.106;11.708;2023-04-15T02:47:00;4.43;;;3.37;;
1831;SDS011;1680;48.106;11.708;2023-04-15T02:49:29;4.90;;;3.60;;
1831;SDS011;1680;48.106;11.708;2023-04-15T02:51:57;3.17;;;2.80;;
1831;SDS011;1680;48.106;11.708;2023-04-15T02:54:24;3.60;;;3.13;;
1831;SDS011;1680;48.106;11.708;2023-04-15T02:56:54;5.00;;;3.80;;
1831;SDS011;1680;48.106;11.708;2023-04-15T02:59:21;4.53;;;3.53;;
1831;SDS011;1680;48.106;11.708;2023-04-15T03:01:48;3.87;;;3.17;;
1831;SDS011;1680;48.106;11.708;2023-04-15T03:04:15;3.77;;;3.30;;
1831;SDS011;1680;48.106;11.708;2023-04-15T03:06:43;3.73;;;3.43;;
1831;SDS011;1680;48.106;11.708;2023-04-15T03:09:11;5.00;;;3.47;;
1831;SDS011;1680;48.106;11.708;2023-04-15T03:11:38;4.23;;;3.00;;
1831;SDS011;1680;48.106;11.708;2023-04-15T03:14:06;4.83;;;3.73;;
1831;SDS011;1680;48.106;11.708;2023-04-15T03:16:33;6.40;;;4.10;;
1831;SDS011;1680;48.106;11.708;2023-04-15T03:19:00;4.47;;;3.10;;
1831;SDS011;1680;48.106;11.708;2023-04-15T03:21:27;4.60;;;4.20;;
1831;SDS011;1680;48.106;11.708;2023-04-15T03:23:55;4.00;;;3.50;;
1831;SDS011;1680;48.106;11.708;2023-04-15T03:26:24;4.00;;;3.60;;
1831;SDS011;1680;48.106;11.708;2023-04-15T03:28:53;3.93;;;3.53;;
1831;SDS011;1680;48.106;11.708;2023-04-15T03:31:20;4.07;;;3.10;;
1831;SDS011;1680;48.106;11.708;2023-04-15T03:33:48;3.73;;;3.13;;
1831;SDS011;1680;48.106;11.708;2023-04-15T03:36:16;5.93;;;4.40;;
1831;SDS011;1680;48.106;11.708;2023-04-15T03:38:43;3.30;;;3.00;;
1831;SDS011;1680;48.106;11.708;2023-04-15T03:41:10;3.80;;;2.93;;
1831;SDS011;1680;48.106;11.708;2023-04-15T03:43:39;4.23;;;3.40;;
1831;SDS011;1680;48.106;11.708;2023-04-15T03:46:06;3.57;;;3.23;;
1831;SDS011;1680;48.106;11.708;2023-04-15T03:48:33;4.43;;;3.60;;
1831;SDS011;1680;48.106;11.708;2023-04-15T03:51:00;3.10;;;2.80;;
1831;SDS011;1680;48.106;11.708;2023-04-15T03:53:28;3.53;;;3.17;;
1831;SDS011;1680;48.106;11.708;2023-04-15T03:55:55;5.60;;;4.00;;
1831;SDS011;1680;48.106;11.708;2023-04-15T03:58:22;4.93;;;3.83;;
1831;SDS011;1680;48.106;11.708;2023-04-15T04:00:50;4.90;;;3.70;;
1831;SDS011;1680;48.106;11.708;2023-04-15T04:03:18;5.53;;;3.03;;
1831;SDS011;1680;48.106;11.708;2023-04-15T04:05:46;5.23;;;4.07;;
1831;SDS011;1680;48.106;11.708;2023-04-15T04:08:13;3.43;;;3.13;;
1831;SDS011;1680;48.106;11.708;2023-04-15T04:10:40;4.60;;;3.40;;
1831;SDS011;1680;48.106;11.708;2023-04-15T04:13:08;4.37;;;3.90;;
1831;SDS011;1680;48.106;11.708;2023-04-15T04:15:35;6.77;;;3.53;;
1831;SDS011;1680;48.106;11.708;2023-04-15T04:18:03;3.37;;;3.00;;
1831;SDS011;1680;48.106;11.708;2023-04-15T04:20:31;3.80;;;3.40;;
1831;SDS011;1680;48.106;11.708;2023-04-15T04:22:59;3.50;;;3.20;;
1831;SDS011;1680;48.106;11.708;2023-04-15T04:25:26;3.40;;;3.07;;
1831;SDS011;1680;48.106;11.708;2023-04-15T04:27:53;3.47;;;3.13;;
1831;SDS011;1680;48.106;11.708;2023-04-15T04:30:21;3.30;;;3.00;;
1831;SDS011;1680;48.106;11.708;2023-04-15T04:32:48;3.60;;;3.30;;
1831;SDS011;1680;48.106;11.708;2023-04-15T04:35:17;5.33;;;3.57;;
1831;SDS011;1680;48.106;11.708;2023-04-15T04:37:44;3.17;;;2.87;;
1831;SDS011;1680;48.106;11.708;2023-04-15T04:40:12;3.17;;;2.80;;
1831;SDS011;1680;48.106;11.708;2023-04-15T04:42:39;5.07;;;3.07;;
1831;SDS011;1680;48.106;11.708;2023-04-15T04:45:07;3.60;;;3.07;;
1831;SDS011;1680;48.106;11.708;2023-04-15T04:47:34;3.57;;;3.30;;
1831;SDS011;1680;48.106;11.708;2023-04-15T04:50:01;2.97;;;2.60;;
1831;SDS011;1680;48.106;11.708;2023-04-15T04:52:30;3.50;;;3.03;;
1831;SDS011;1680;48.106;11.708;2023-04-15T04:54:57;3.80;;;3.03;;
1831;SDS011;1680;48.106;11.708;2023-04-15T04:57:24;2.90;;;2.70;;
1831;SDS011;1680;48.106;11.708;2023-04-15T04:59:52;3.97;;;3.10;;
1831;SDS011;1680;48.106;11.708;2023-04-15T05:02:19;3.03;;;2.50;;
1831;SDS011;1680;48.106;11.708;2023-04-15T05:04:46;2.70;;;2.50;;
1831;SDS011;1680;48.106;11.708;2023-04-15T05:07:14;3.73;;;2.70;;
1831;SDS011;1680;48.106;11.708;2023-04-15T05:09:42;3.80;;;2.70;;
1831;SDS011;1680;48.106;11.708;2023-04-15T05:12:10;2.93;;;2.60;;
1831;SDS011;1680;48.106;11.708;2023-04-15T05:14:39;2.67;;;2.47;;
1831;SDS011;1680;48.106;11.708;2023-04-15T05:17:07;4.23;;;2.43;;
1831;SDS011;1680;48.106;11.708;2023-04-15T05:19:35;3.93;;;2.90;;
1831;SDS011;1680;48.106;11.708;2023-04-15T05:22:02;3.40;;;2.63;;
1831;SDS011;1680;48.106;11.708;2023-04-15T05:24:30;3.60;;;2.77;;
1831;SDS011;1680;48.106;11.708;2023-04-15T05:26:58;2.70;;;2.47;;
1831;SDS011;1680;48.106;11.708;2023-04-15T05:29:26;4.23;;;2.90;;
1831;SDS011;1680;48.106;11.708;2023-04-15T05:31:54;4.60;;;2.60;;
1831;SDS011;1680;48.106;11.708;2023-04-15T05:34:21;4.37;;;2.70;;
1831;SDS011;1680;48.106;11.708;2023-04-15T05:36:49;3.37;;;3.07;;
1831;SDS011;1680;48.106;11.708;2023-04-15T05:39:16;4.30;;;2.60;;
1831;SDS011;1680;48.106;11.708;2023-04-15T05:41:43;3.00;;;2.57;;
1831;SDS011;1680;48.106;11.708;2023-04-15T05:44:12;3.50;;;2.63;;
1831;SDS011;1680;48.106;11.708;2023-04-15T05:46:39;2.87;;;2.63;;
1831;SDS011;1680;48.106;11.708;2023-04-15T05:49:07;4.57;;;2.90;;
1831;SDS011;1680;48.106;11.708;2023-04-15T05:51:34;3.10;;;2.50;;
1831;SDS011;1680;48.106;11.708;2023-04-15T05:54:02;9.20;;;3.27;;
1831;SDS011;1680;48.106;11.708;2023-04-15T05:56:29;5.00;;;2.67;;
1831;SDS011;1680;48.106;11.708;2023-04-15T05:58:56;4.37;;;3.07;;
1831;SDS011;1680;48.106;11.708;2023-04-15T06:01:25;3.80;;;2.80;;
1831;SDS011;1680;48.106;11.708;2023-04-15T06:03:52;4.33;;;3.13;;
1831;SDS011;1680;48.106;11.708;2023-04-15T06:06:19;5.47;;;2.43;;
1831;SDS011;1680;48.106;11.708;2023-04-15T06:08:46;3.43;;;2.60;;
1831;SDS011;1680;48.106;11.708;2023-04-15T06:11:13;2.93;;;2.23;;
1831;SDS011;1680;48.106;11.708;2023-04-15T06:13:41;3.13;;;2.23;;
1831;SDS011;1680;48.106;11.708;2023-04-15T06:16:08;2.33;;;2.13;;
1831;SDS011;1680;48.106;11.708;2023-04-15T06:18:37;3.57;;;2.83;;
1831;SDS011;1680;48.106;11.708;2023-04-15T06:21:04;6.43;;;2.40;;
1831;SDS011;1680;48.106;11.708;2023-04-15T06:23:33;4.40;;;2.30;;
1831;SDS011;1680;48.106;11.708;2023-04-15T06:26:00;3.00;;;2.33;;
1831;SDS011;1680;48.106;11.708;2023-04-15T06:28:27;5.30;;;2.10;;
1831;SDS011;1680;48.106;11.708;2023-04-15T06:30:55;6.30;;;2.43;;
1831;SDS011;1680;48.106;11.708;2023-04-15T06:33:22;7.73;;;2.40;;
1831;SDS011;1680;48.106;11.708;2023-04-15T06:35:51;2.53;;;2.13;;
1831;SDS011;1680;48.106;11.708;2023-04-15T06:38:18;2.90;;;2.60;;
1831;SDS011;1680;48.106;11.708;2023-04-15T06:40:45;3.53;;;2.03;;
1831;SDS011;1680;48.106;11.708;2023-04-15T06:43:12;4.27;;;2.40;;
1831;SDS011;1680;48.106;11.708;2023-04-15T06:45:39;2.30;;;2.10;;
1831;SDS011;1680;48.106;11.708;2023-04-15T06:48:06;3.20;;;2.30;;
1831;SDS011;1680;48.106;11.708;2023-04-15T06:50:34;2.60;;;2.20;;
1831;SDS011;1680;48.106;11.708;2023-04-15T06:53:03;3.37;;;2.30;;
1831;SDS011;1680;48.106;11.708;2023-04-15T06:55:30;4.10;;;2.97;;
1831;SDS011;1680;48.106;11.708;2023-04-15T06:57:58;4.13;;;2.70;;
1831;SDS011;1680;48.106;11.708;2023-04-15T07:00:25;2.40;;;2.20;;
1831;SDS011;1680;48.106;11.708;2023-04-15T07:02:53;3.47;;;2.40;;
1831;SDS011;1680;48.106;11.708;2023-04-15T07:05:20;2.63;;;2.00;;
1831;SDS011;1680;48.106;11.708;2023-04-15T07:07:47;5.80;;;2.67;;
1831;SDS011;1680;48.106;11.708;2023-04-15T07:10:16;3.20;;;2.13;;
1831;SDS011;1680;48.106;11.708;2023-04-15T07:12:44;3.63;;;1.93;;
1831;SDS011;1680;48.106;11.708;2023-04-15T07:15:11;3.13;;;2.40;;
1831;SDS011;1680;48.106;11.708;2023-04-15T07:17:39;4.17;;;2.03;;
1831;SDS011;1680;48.106;11.708;2023-04-15T07:20:08;2.70;;;2.17;;
1831;SDS011;1680;48.106;11.708;2023-04-15T07:22:35;2.43;;;2.00;;
1831;SDS011;1680;48.106;11.708;2023-04-15T07:25:03;2.70;;;2.43;;
1831;SDS011;1680;48.106;11.708;2023-04-15T07:27:32;3.20;;;2.10;;
1831;SDS011;1680;48.106;11.708;2023-04-15T07:29:59;3.50;;;1.80;;
1831;SDS011;1680;48.106;11.708;2023-04-15T07:32:26;3.27;;;2.00;;
1831;SDS011;1680;48.106;11.708;2023-04-15T07:34:53;4.00;;;1.83;;
1831;SDS011;1680;48.106;11.708;2023-04-15T07:37:21;2.27;;;1.53;;
1831;SDS011;1680;48.106;11.708;2023-04-15T07:39:48;3.50;;;2.10;;
1831;SDS011;1680;48.106;11.708;2023-04-15T07:42:15;3.23;;;2.00;;
1831;SDS011;1680;48.106;11.708;2023-04-15T07:44:44;5.03;;;2.23;;
1831;SDS011;1680;48.106;11.708;2023-04-15T07:47:11;9.33;;;2.13;;
1831;SDS011;1680;48.106;11.708;2023-04-15T07:49:40;2.23;;;2.03;;
1831;SDS011;1680;48.106;11.708;2023-04-15T07:52:08;4.13;;;2.23;;
1831;SDS011;1680;48.106;11.708;2023-04-15T07:54:35;5.67;;;3.00;;
1831;SDS011;1680;48.106;11.708;2023-04-15T07:57:03;2.63;;;2.07;;
1831;SDS011;1680;48.106;11.708;2023-04-15T07:59:30;5.37;;;2.40;;
1831;SDS011;1680;48.106;11.708;2023-04-15T08:01:59;3.10;;;2.33;;
1831;SDS011;1680;48.106;11.708;2023-04-15T08:04:27;3.60;;;2.87;;
1831;SDS011;1680;48.106;11.708;2023-04-15T08:06:55;3.50;;;2.73;;
1831;SDS011;1680;48.106;11.708;2023-04-15T08:09:22;4.33;;;2.60;;
1831;SDS011;1680;48.106;11.708;2023-04-15T08:11:51;3.93;;;2.50;;
1831;SDS011;1680;48.106;11.708;2023-04-15T08:14:18;3.83;;;2.57;;
1831;SDS011;1680;48.106;11.708;2023-04-15T08:16:46;3.73;;;2.20;;
1831;SDS011;1680;48.106;11.708;2023-04-15T08:19:14;6.33;;;3.10;;
1831;SDS011;1680;48.106;11.708;2023-04-15T08:21:42;3.90;;;2.40;;
1831;SDS011;1680;48.106;11.708;2023-04-15T08:24:09;3.67;;;2.40;;
1831;SDS011;1680;48.106;11.708;2023-04-15T08:26:37;5.03;;;2.77;;
1831;SDS011;1680;48.106;11.708;2023-04-15T08:29:04;4.90;;;2.83;;
1831;SDS011;1680;48.106;11.708;2023-04-15T08:31:31;3.60;;;2.57;;
1831;SDS011;1680;48.106;11.708;2023-04-15T08:33:58;3.20;;;2.63;;
1831;SDS011;1680;48.106;11.708;2023-04-15T08:36:27;4.20;;;2.83;;
1831;SDS011;1680;48.106;11.708;2023-04-15T08:38:54;2.83;;;2.63;;
1831;SDS011;1680;48.106;11.708;2023-04-15T08:41:21;3.27;;;2.50;;
1831;SDS011;1680;48.106;11.708;2023-04-15T08:43:53;3.83;;;2.53;;
1831;SDS011;1680;48.106;11.708;2023-04-15T08:46:23;4.87;;;2.70;;
1831;SDS011;1680;48.106;11.708;2023-04-15T08:48:50;4.73;;;2.70;;
1831;SDS011;1680;48.106;11.708;2023-04-15T08:51:22;3.20;;;2.33;;
1831;SDS011;1680;48.106;11.708;2023-04-15T08:53:51;5.33;;;2.57;;
1831;SDS011;1680;48.106;11.708;2023-04-15T08:56:19;6.73;;;2.57;;
1831;SDS011;1680;48.106;11.708;2023-04-15T08:58:50;3.10;;;2.70;;
1831;SDS011;1680;48.106;11.708;2023-04-15T09:01:18;2.90;;;2.40;;
1831;SDS011;1680;48.106;11.708;2023-04-15T09:03:45;5.37;;;2.53;;
1831;SDS011;1680;48.106;11.708;2023-04-15T09:06:15;3.70;;;3.20;;
1831;SDS011;1680;48.106;11.708;2023-04-15T09:08:42;3.73;;;2.93;;
1831;SDS011;1680;48.106;11.708;2023-04-15T09:11:11;5.10;;;3.10;;
1831;SDS011;1680;48.106;11.708;2023-04-15T09:13:39;3.87;;;3.50;;
1831;SDS011;1680;48.106;11.708;2023-04-15T09:16:06;2.90;;;2.60;;
1831;SDS011;1680;48.106;11.708;2023-04-15T09:18:34;3.03;;;2.80;;
1831;SDS011;1680;48.106;11.708;2023-04-15T09:21:03;4.07;;;3.10;;
1831;SDS011;1680;48.106;11.708;2023-04-15T09:23:33;3.60;;;2.40;;
1831;SDS011;1680;48.106;11.708;2023-04-15T09:26:00;3.80;;;3.30;;
1831;SDS011;1680;48.106;11.708;2023-04-15T09:28:29;4.20;;;3.10;;
1831;SDS011;1680;48.106;11.708;2023-04-15T09:30:57;5.93;;;3.47;;
1831;SDS011;1680;48.106;11.708;2023-04-15T09:33:25;6.23;;;2.80;;
1831;SDS011;1680;48.106;11.708;2023-04-15T09:35:55;3.40;;;3.10;;
1831;SDS011;1680;48.106;11.708;2023-04-15T09:38:24;4.33;;;3.07;;
1831;SDS011;1680;48.106;11.708;2023-04-15T09:40:51;3.10;;;2.90;;
1831;SDS011;1680;48.106;11.708;2023-04-15T09:43:18;3.73;;;3.43;;
1831;SDS011;1680;48.106;11.708;2023-04-15T09:45:48;4.43;;;4.00;;
1831;SDS011;1680;48.106;11.708;2023-04-15T09:48:17;5.93;;;3.67;;
1831;SDS011;1680;48.106;11.708;2023-04-15T09:50:46;5.00;;;3.60;;
1831;SDS011;1680;48.106;11.708;2023-04-15T09:53:15;3.83;;;3.53;;
1831;SDS011;1680;48.106;11.708;2023-04-15T09:55:44;5.43;;;4.00;;
1831;SDS011;1680;48.106;11.708;2023-04-15T09:58:19;4.13;;;3.77;;
1831;SDS011;1680;48.106;11.708;2023-04-15T10:00:49;4.60;;;4.00;;
1831;SDS011;1680;48.106;11.708;2023-04-15T10:03:18;5.03;;;4.43;;
1831;SDS011;1680;48.106;11.708;2023-04-15T10:05:47;4.80;;;4.37;;
1831;SDS011;1680;48.106;11.708;2023-04-15T10:08:16;4.70;;;4.07;;
1831;SDS011;1680;48.106;11.708;2023-04-15T10:10:44;4.93;;;4.50;;
1831;SDS011;1680;48.106;11.708;2023-04-15T10:13:13;4.80;;;4.30;;
1831;SDS011;1680;48.106;11.708;2023-04-15T10:15:43;4.60;;;3.97;;
1831;SDS011;1680;48.106;11.708;2023-04-15T10:18:16;8.10;;;5.13;;
1831;SDS011;1680;48.106;11.708;2023-04-15T10:20:46;6.17;;;5.00;;
1831;SDS011;1680;48.106;11.708;2023-04-15T10:23:14;6.57;;;5.30;;
1831;SDS011;1680;48.106;11.708;2023-04-15T10:25:43;4.40;;;4.00;;
1831;SDS011;1680;48.106;11.708;2023-04-15T10:28:11;5.87;;;5.27;;
1831;SDS011;1680;48.106;11.708;2023-04-15T10:30:40;5.33;;;4.33;;
1831;SDS011;1680;48.106;11.708;2023-04-15T10:33:09;6.37;;;3.90;;
1831;SDS011;1680;48.106;11.708;2023-04-15T10:35:38;5.07;;;4.40;;
1831;SDS011;1680;48.106;11.708;2023-04-15T10:41:16;4.63;;;4.23;;
1831;SDS011;1680;48.106;11.708;2023-04-15T10:43:46;4.87;;;4.33;;
1831;SDS011;1680;48.106;11.708;2023-04-15T10:46:19;5.70;;;5.10;;
1831;SDS011;1680;48.106;11.708;2023-04-15T10:48:48;4.73;;;4.10;;
1831;SDS011;1680;48.106;11.708;2023-04-15T10:51:26;6.40;;;4.47;;
1831;SDS011;1680;48.106;11.708;2023-04-15T10:53:55;5.73;;;4.77;;
1831;SDS011;1680;48.106;11.708;2023-04-15T10:56:24;8.10;;;5.50;;
1831;SDS011;1680;48.106;11.708;2023-04-15T10:58:51;5.80;;;5.30;;
1831;SDS011;1680;48.106;11.708;2023-04-15T11:01:19;7.80;;;5.70;;
1831;SDS011;1680;48.106;11.708;2023-04-15T11:03:47;6.63;;;5.27;;
1831;SDS011;1680;48.106;11.708;2023-04-15T11:06:15;7.53;;;5.10;;
1831;SDS011;1680;48.106;11.708;2023-04-15T11:08:53;4.87;;;4.13;;
1831;SDS011;1680;48.106;11.708;2023-04-15T11:11:23;7.40;;;5.67;;
1831;SDS011;1680;48.106;11.708;2023-04-15T11:14:31;5.50;;;4.80;;
1831;SDS011;1680;48.106;11.708;2023-04-15T11:19:52;7.77;;;5.00;;
1831;SDS011;1680;48.106;11.708;2023-04-15T11:22:19;5.40;;;4.90;;
1831;SDS011;1680;48.106;11.708;2023-04-15T11:24:48;5.93;;;5.07;;
1831;SDS011;1680;48.106;11.708;2023-04-15T11:27:19;5.77;;;5.13;;
1831;SDS011;1680;48.106;11.708;2023-04-15T11:29:47;5.60;;;5.00;;
1831;SDS011;1680;48.106;11.708;2023-04-15T11:32:14;5.80;;;5.30;;
1831;SDS011;1680;48.106;11.708;2023-04-15T11:34:44;4.90;;;4.50;;
1831;SDS011;1680;48.106;11.708;2023-04-15T11:37:13;4.83;;;4.30;;
1831;SDS011;1680;48.106;11.708;2023-04-15T11:39:40;5.57;;;4.97;;
1831;SDS011;1680;48.106;11.708;2023-04-15T11:42:16;7.17;;;5.03;;
1831;SDS011;1680;48.106;11.708;2023-04-15T11:44:44;5.40;;;4.90;;
1831;SDS011;1680;48.106;11.708;2023-04-15T11:47:21;5.57;;;4.83;;
1831;SDS011;1680;48.106;11.708;2023-04-15T11:49:48;5.27;;;4.30;;
1831;SDS011;1680;48.106;11.708;2023-04-15T11:52:15;7.13;;;4.77;;
1831;SDS011;1680;48.106;11.708;2023-04-15T11:54:43;5.13;;;4.40;;
1831;SDS011;1680;48.106;11.708;2023-04-15T11:57:10;7.20;;;4.47;;
1831;SDS011;1680;48.106;11.708;2023-04-15T11:59:42;5.83;;;4.60;;
1831;SDS011;1680;48.106;11.708;2023-04-15T12:02:10;6.83;;;5.70;;
1831;SDS011;1680;48.106;11.708;2023-04-15T12:04:38;6.70;;;5.07;;
1831;SDS011;1680;48.106;11.708;2023-04-15T12:07:05;5.13;;;4.63;;
1831;SDS011;1680;48.106;11.708;2023-04-15T12:09:36;4.90;;;4.40;;
1831;SDS011;1680;48.106;11.708;2023-04-15T12:12:04;5.20;;;4.70;;
1831;SDS011;1680;48.106;11.708;2023-04-15T12:14:31;5.17;;;4.67;;
1831;SDS011;1680;48.106;11.708;2023-04-15T12:17:01;7.10;;;5.23;;
1831;SDS011;1680;48.106;11.708;2023-04-15T12:19:30;5.63;;;5.00;;
1831;SDS011;1680;48.106;11.708;2023-04-15T12:22:03;4.83;;;4.43;;
1831;SDS011;1680;48.106;11.708;2023-04-15T12:24:31;6.70;;;5.07;;
1831;SDS011;1680;48.106;11.708;2023-04-15T12:27:03;4.90;;;4.43;;
1831;SDS011;1680;48.106;11.708;2023-04-15T12:29:31;5.87;;;5.27;;
1831;SDS011;1680;48.106;11.708;2023-04-15T12:32:04;7.13;;;5.63;;
1831;SDS011;1680;48.106;11.708;2023-04-15T12:34:34;5.50;;;4.13;;
1831;SDS011;1680;48.106;11.708;2023-04-15T12:37:03;5.00;;;4.50;;
1831;SDS011;1680;48.106;11.708;2023-04-15T12:39:33;6.03;;;4.40;;
1831;SDS011;1680;48.106;11.708;2023-04-15T12:42:01;3.87;;;3.57;;
1831;SDS011;1680;48.106;11.708;2023-04-15T12:44:29;5.23;;;4.73;;
1831;SDS011;1680;48.106;11.708;2023-04-15T12:46:57;4.17;;;3.87;;
1831;SDS011;1680;48.106;11.708;2023-04-15T12:49:26;6.40;;;4.27;;
1831;SDS011;1680;48.106;11.708;2023-04-15T12:51:55;5.03;;;4.50;;
1831;SDS011;1680;48.106;11.708;2023-04-15T12:54:23;5.13;;;4.30;;
1831;SDS011;1680;48.106;11.708;2023-04-15T12:56:50;4.60;;;3.63;;
1831;SDS011;1680;48.106;11.708;2023-04-15T12:59:18;6.47;;;4.10;;
1831;SDS011;1680;48.106;11.708;2023-04-15T13:01:46;4.63;;;3.80;;
1831;SDS011;1680;48.106;11.708;2023-04-15T13:04:13;4.37;;;3.37;;
1831;SDS011;1680;48.106;11.708;2023-04-15T13:06:42;5.80;;;3.97;;
1831;SDS011;1680;48.106;11.708;2023-04-15T13:09:10;3.50;;;3.20;;
1831;SDS011;1680;48.106;11.708;2023-04-15T13:11:37;3.53;;;3.23;;
1831;SDS011;1680;48.106;11.708;2023-04-15T13:14:05;4.00;;;3.50;;
1831;SDS011;1680;48.106;11.708;2023-04-15T13:16:33;4.03;;;2.90;;
1831;SDS011;1680;48.106;11.708;2023-04-15T13:19:01;4.23;;;3.40;;
1831;SDS011;1680;48.106;11.708;2023-04-15T13:21:29;3.03;;;2.73;;
1831;SDS011;1680;48.106;11.708;2023-04-15T13:24:00;5.00;;;3.77;;
1831;SDS011;1680;48.106;11.708;2023-04-15T13:26:27;3.43;;;3.13;;
1831;SDS011;1680;48.106;11.708;2023-04-15T13:28:55;4.03;;;3.63;;
1831;SDS011;1680;48.106;11.708;2023-04-15T13:31:22;4.77;;;3.80;;
1831;SDS011;1680;48.106;11.708;2023-04-15T13:33:49;7.40;;;4.20;;
1831;SDS011;1680;48.106;11.708;2023-04-15T13:36:16;4.10;;;3.80;;
1831;SDS011;1680;48.106;11.708;2023-04-15T13:38:44;6.10;;;4.20;;
1831;SDS011;1680;48.106;11.708;2023-04-15T13:41:12;5.30;;;3.80;;
1831;SDS011;1680;48.106;11.708;2023-04-15T13:43:39;5.03;;;4.37;;
1831;SDS011;1680;48.106;11.708;2023-04-15T13:46:06;4.60;;;3.90;;
1831;SDS011;1680;48.106;11.708;2023-04-15T13:48:34;5.33;;;3.73;;
1831;SDS011;1680;48.106;11.708;2023-04-15T13:51:01;6.30;;;4.37;;
1831;SDS011;1680;48.106;11.708;2023-04-15T13:53:28;6.17;;;4.43;;
1831;SDS011;1680;48.106;11.708;2023-04-15T13:55:55;4.70;;;3.70;;
1831;SDS011;1680;48.106;11.708;2023-04-15T13:58:24;5.57;;;4.27;;
1831;SDS011;1680;48.106;11.708;2023-04-15T14:00:51;4.40;;;4.00;;
1831;SDS011;1680;48.106;11.708;2023-04-15T14:03:18;6.57;;;4.10;;
1831;SDS011;1680;48.106;11.708;2023-04-15T14:05:45;4.40;;;4.00;;
1831;SDS011;1680;48.106;11.708;2023-04-15T14:08:17;4.23;;;3.90;;
1831;SDS011;1680;48.106;11.708;2023-04-15T14:10:44;6.53;;;4.50;;
1831;SDS011;1680;48.106;11.708;2023-04-15T14:13:12;5.33;;;4.40;;
1831;SDS011;1680;48.106;11.708;2023-04-15T14:15:41;5.23;;;4.63;;
1831;SDS011;1680;48.106;11.708;2023-04-15T14:18:08;4.80;;;4.33;;
1831;SDS011;1680;48.106;11.708;2023-04-15T14:20:36;4.40;;;4.00;;
1831;SDS011;1680;48.106;11.708;2023-04-15T14:23:03;8.40;;;6.50;;
1831;SDS011;1680;48.106;11.708;2023-04-15T14:25:30;7.40;;;4.70;;
1831;SDS011;1680;48.106;11.708;2023-04-15T14:27:57;6.60;;;4.80;;
1831;SDS011;1680;48.106;11.708;2023-04-15T14:30:25;5.17;;;4.23;;
1831;SDS011;1680;48.106;11.708;2023-04-15T14:32:53;5.60;;;4.20;;
1831;SDS011;1680;48.106;11.708;2023-04-15T14:35:20;6.83;;;4.10;;
1831;SDS011;1680;48.106;11.708;2023-04-15T14:37:48;4.27;;;3.57;;
1831;SDS011;1680;48.106;11.708;2023-04-15T14:40:15;3.60;;;3.10;;
1831;SDS011;1680;48.106;11.708;2023-04-15T14:42:43;5.40;;;4.13;;
1831;SDS011;1680;48.106;11.708;2023-04-15T14:45:10;3.80;;;3.50;;
1831;SDS011;1680;48.106;11.708;2023-04-15T14:47:37;4.17;;;3.77;;
1831;SDS011;1680;48.106;11.708;2023-04-15T14:50:06;4.30;;;3.40;;
1831;SDS011;1680;48.106;11.708;2023-04-15T14:52:34;3.70;;;3.40;;
1831;SDS011;1680;48.106;11.708;2023-04-15T14:55:04;4.03;;;3.30;;
1831;SDS011;1680;48.106;11.708;2023-04-15T14:57:31;4.60;;;4.20;;
1831;SDS011;1680;48.106;11.708;2023-04-15T14:59:58;4.93;;;4.03;;
1831;SDS011;1680;48.106;11.708;2023-04-15T15:02:25;4.80;;;4.20;;
1831;SDS011;1680;48.106;11.708;2023-04-15T15:04:54;4.77;;;3.93;;
1831;SDS011;1680;48.106;11.708;2023-04-15T15:07:23;4.80;;;4.30;;
1831;SDS011;1680;48.106;11.708;2023-04-15T15:09:50;4.90;;;4.40;;
1831;SDS011;1680;48.106;11.708;2023-04-15T15:12:17;5.20;;;3.70;;